createdAt,value
2023-04-09T00:01:04.617Z,101037.78
2023-04-09T00:03:32.370Z,101045.75
2023-04-09T00:05:59.557Z,101036.69
2023-04-09T00:08:26.722Z,101049.94
2023-04-09T00:10:54.430Z,101039.22
2023-04-09T00:13:35.478Z,101036.16
2023-04-09T00:16:05.695Z,101044.28
2023-04-09T00:18:32.713Z,101042.47
2023-04-09T00:20:59.704Z,101046.72
2023-04-09T00:23:26.800Z,101027.34
2023-04-09T00:25:53.964Z,100991.72
2023-04-09T00:28:20.915Z,101034.13
2023-04-09T00:30:47.906Z,101048.38
2023-04-09T00:33:14.971Z,101029.66
2023-04-09T00:35:42.099Z,101048.09
2023-04-09T00:38:09.121Z,101042.94
2023-04-09T00:40:36.085Z,101038.44
2023-04-09T00:43:03.589Z,100987.88
2023-04-09T00:45:30.788Z,101053.16
2023-04-09T00:47:58.008Z,101027.63
2023-04-09T00:50:25.459Z,101028.31
2023-04-09T00:52:52.513Z,101031.09
2023-04-09T00:55:21.612Z,101028.31
2023-04-09T00:57:48.607Z,101010.66
2023-04-09T01:00:15.895Z,100983.88
2023-04-09T01:02:43.877Z,101025.50
2023-04-09T01:05:12.783Z,101043.00
2023-04-09T01:08:07.067Z,101025.56
2023-04-09T01:10:47.243Z,101039.53
2023-04-09T01:13:30.444Z,101039.63
2023-04-09T01:16:02.186Z,101035.16
2023-04-09T01:18:38.737Z,101040.31
2023-04-09T01:21:10.120Z,101032.25
2023-04-09T01:23:46.560Z,101049.78
2023-04-09T01:26:36.846Z,101033.00
2023-04-09T01:29:06.074Z,101047.88
2023-04-09T01:31:38.611Z,101024.16
2023-04-09T01:34:08.963Z,101038.28
2023-04-09T01:36:36.951Z,101038.19
2023-04-09T01:39:05.091Z,101030.19
2023-04-09T01:41:34.489Z,101023.25
2023-04-09T01:44:03.567Z,100971.34
2023-04-09T01:46:32.449Z,101050.69
2023-04-09T01:48:59.912Z,101049.53
2023-04-09T01:51:27.463Z,101045.13
2023-04-09T01:53:54.667Z,101053.75
2023-04-09T01:56:21.691Z,101039.94
2023-04-09T01:58:49.034Z,101050.63
2023-04-09T02:01:36.868Z,101054.25
2023-04-09T02:04:08.989Z,101039.44
2023-04-09T02:06:44.570Z,101044.63
2023-04-09T02:09:12.816Z,101044.50
2023-04-09T02:11:42.458Z,101047.97
2023-04-09T02:14:11.524Z,101028.56
2023-04-09T02:16:59.659Z,101048.09
2023-04-09T02:19:39.565Z,101047.56
2023-04-09T02:22:06.556Z,101048.34
2023-04-09T02:24:33.645Z,101036.94
2023-04-09T02:27:00.660Z,101041.50
2023-04-09T02:29:27.675Z,101042.53
2023-04-09T02:31:55.397Z,101039.13
2023-04-09T02:34:23.005Z,101043.44
2023-04-09T02:36:50.090Z,101039.88
2023-04-09T02:39:17.111Z,101043.34
2023-04-09T02:41:44.626Z,101037.44
2023-04-09T02:44:11.625Z,101043.59
2023-04-09T02:46:39.814Z,101045.13
2023-04-09T02:49:07.204Z,101040.63
2023-04-09T02:51:37.076Z,101031.47
2023-04-09T02:54:04.719Z,101021.78
2023-04-09T02:56:31.774Z,101043.75
2023-04-09T02:58:58.766Z,101041.97
2023-04-09T03:01:25.745Z,101039.31
2023-04-09T03:03:52.947Z,101041.59
2023-04-09T03:06:20.045Z,101028.44
2023-04-09T03:08:47.028Z,101049.78
2023-04-09T03:11:14.027Z,101053.56
2023-04-09T03:13:40.981Z,101035.25
2023-04-09T03:16:10.360Z,101049.34
2023-04-09T03:18:37.569Z,100994.59
2023-04-09T03:21:08.669Z,100992.94
2023-04-09T03:23:38.713Z,101048.50
2023-04-09T03:26:07.681Z,101037.22
2023-04-09T03:28:42.658Z,101050.63
2023-04-09T03:31:09.818Z,101036.00
2023-04-09T03:33:39.170Z,101031.38
2023-04-09T03:36:07.152Z,101042.16
2023-04-09T03:38:55.148Z,101049.06
2023-04-09T03:41:43.703Z,101041.22
2023-04-09T03:44:14.830Z,101036.09
2023-04-09T03:46:56.011Z,101025.22
2023-04-09T03:49:23.518Z,101049.25
2023-04-09T03:51:50.580Z,101030.59
2023-04-09T03:54:17.960Z,101030.94
2023-04-09T03:56:46.258Z,101048.63
2023-04-09T03:59:16.146Z,101042.56
2023-04-09T04:01:47.042Z,101051.28
2023-04-09T04:04:14.851Z,101037.47
2023-04-09T04:06:50.033Z,101041.31
2023-04-09T04:09:27.428Z,101049.38
2023-04-09T04:12:02.347Z,101041.63
2023-04-09T04:14:47.674Z,101037.78
2023-04-09T04:17:31.592Z,101042.34
2023-04-09T04:20:00.324Z,101048.66
2023-04-09T04:22:27.601Z,101048.13
2023-04-09T04:24:58.835Z,101041.72
2023-04-09T04:27:26.382Z,100956.56
2023-04-09T04:29:53.853Z,101035.50
2023-04-09T04:32:32.051Z,101045.66
2023-04-09T04:35:04.256Z,101036.69
2023-04-09T04:37:31.264Z,101002.31
2023-04-09T04:40:05.404Z,101031.47
2023-04-09T04:42:36.297Z,100995.28
2023-04-09T04:45:10.418Z,101026.41
2023-04-09T04:47:50.841Z,101034.97
2023-04-09T04:50:17.875Z,101029.19
2023-04-09T04:52:58.968Z,101021.09
2023-04-09T04:55:30.513Z,101037.84
2023-04-09T04:58:01.084Z,101042.81
2023-04-09T05:00:33.491Z,101036.78
2023-04-09T05:03:02.895Z,101040.09
2023-04-09T05:05:48.313Z,101032.84
2023-04-09T05:08:15.382Z,101035.22
2023-04-09T05:10:43.946Z,101042.19
2023-04-09T05:13:11.815Z,101022.53
2023-04-09T05:15:40.764Z,101027.84
2023-04-09T05:18:09.266Z,101033.94
2023-04-09T05:20:37.557Z,101039.84
2023-04-09T05:23:10.388Z,101014.72
2023-04-09T05:25:41.574Z,101019.28
2023-04-09T05:28:16.896Z,101033.63
2023-04-09T05:30:48.361Z,101030.53
2023-04-09T05:33:17.690Z,101030.38
2023-04-09T05:35:45.564Z,101028.66
2023-04-09T05:38:13.904Z,101040.09
2023-04-09T05:40:44.569Z,101040.25
2023-04-09T05:43:13.221Z,101048.13
2023-04-09T05:45:43.598Z,101047.50
2023-04-09T05:48:10.843Z,101044.84
2023-04-09T05:50:51.614Z,101034.78
2023-04-09T05:53:23.970Z,101051.78
2023-04-09T05:55:51.336Z,101050.75
2023-04-09T05:58:21.725Z,101052.34
2023-04-09T06:00:51.718Z,100992.38
2023-04-09T06:03:19.679Z,101037.19
2023-04-09T06:05:47.051Z,101054.84
2023-04-09T06:08:14.340Z,101031.16
2023-04-09T06:10:41.716Z,101048.91
2023-04-09T06:13:10.486Z,101037.50
2023-04-09T06:15:40.703Z,101058.63
2023-04-09T06:18:07.808Z,101062.31
2023-04-09T06:20:34.914Z,101067.59
2023-04-09T06:23:02.029Z,101071.16
2023-04-09T06:25:29.057Z,101068.41
2023-04-09T06:27:56.827Z,101067.59
2023-04-09T06:30:23.916Z,101051.72
2023-04-09T06:32:54.945Z,101068.56
2023-04-09T06:35:23.369Z,101052.91
2023-04-09T06:37:50.540Z,101070.78
2023-04-09T06:40:17.938Z,101062.53
2023-04-09T06:42:45.731Z,101069.81
2023-04-09T06:45:32.701Z,101069.16
2023-04-09T06:48:00.973Z,101061.50
2023-04-09T06:50:28.138Z,101066.34
2023-04-09T06:52:55.448Z,101072.03
2023-04-09T06:55:22.491Z,101063.41
2023-04-09T06:57:49.423Z,101068.56
2023-04-09T07:00:16.665Z,101066.97
2023-04-09T07:02:43.950Z,101072.22
2023-04-09T07:05:11.185Z,101068.72
2023-04-09T07:07:38.945Z,101046.59
2023-04-09T07:10:06.605Z,101064.84
2023-04-09T07:12:37.563Z,101061.38
2023-04-09T07:15:07.896Z,101072.06
2023-04-09T07:17:35.588Z,101075.38
2023-04-09T07:20:02.601Z,101069.25
2023-04-09T07:22:30.952Z,101051.56
2023-04-09T07:24:58.025Z,101071.72
2023-04-09T07:27:27.511Z,101069.03
2023-04-09T07:29:59.431Z,101071.81
2023-04-09T07:32:28.397Z,101075.47
2023-04-09T07:34:56.058Z,101072.91
2023-04-09T07:37:23.280Z,101071.94
2023-04-09T07:39:51.425Z,101073.56
2023-04-09T07:42:18.572Z,101054.19
2023-04-09T07:44:45.587Z,101067.09
2023-04-09T07:47:13.039Z,101027.59
2023-04-09T07:49:40.387Z,101072.25
2023-04-09T07:52:08.210Z,101068.13
2023-04-09T07:54:35.971Z,101056.13
2023-04-09T07:57:03.437Z,101061.53
2023-04-09T07:59:31.727Z,101047.44
2023-04-09T08:01:59.669Z,101067.59
2023-04-09T08:04:27.574Z,101072.91
2023-04-09T08:06:54.719Z,101064.03
2023-04-09T08:09:21.728Z,101043.75
2023-04-09T08:11:49.511Z,101069.72
2023-04-09T08:14:17.593Z,101058.59
2023-04-09T08:16:47.384Z,101041.13
2023-04-09T08:19:16.426Z,101059.81
2023-04-09T08:21:44.305Z,101062.84
2023-04-09T08:24:12.207Z,101061.19
2023-04-09T08:26:40.032Z,101060.19
2023-04-09T08:29:08.203Z,101057.13
2023-04-09T08:31:36.695Z,101041.06
2023-04-09T08:34:04.040Z,101060.25
2023-04-09T08:36:32.625Z,101053.59
2023-04-09T08:39:00.703Z,101061.50
2023-04-09T08:41:29.555Z,101049.56
2023-04-09T08:43:59.161Z,101046.31
2023-04-09T08:46:27.622Z,101041.81
2023-04-09T08:48:55.437Z,101045.91
2023-04-09T08:51:24.590Z,101041.44
2023-04-09T08:54:04.764Z,101047.69
2023-04-09T08:56:32.285Z,101041.16
2023-04-09T08:58:59.454Z,101046.03
2023-04-09T09:01:28.343Z,101026.78
2023-04-09T09:04:00.555Z,101037.78
2023-04-09T09:06:33.438Z,101041.88
2023-04-09T09:09:06.698Z,101029.16
2023-04-09T09:11:52.142Z,101035.88
2023-04-09T09:14:19.821Z,101032.63
2023-04-09T09:16:55.806Z,101035.72
2023-04-09T09:19:30.592Z,101028.66
2023-04-09T09:21:57.699Z,101029.31
2023-04-09T09:24:24.736Z,101023.13
2023-04-09T09:26:52.711Z,101030.47
2023-04-09T09:29:20.246Z,101009.22
2023-04-09T09:31:52.914Z,101008.63
2023-04-09T09:34:21.531Z,101015.63
2023-04-09T09:37:21.599Z,101010.72
2023-04-09T09:39:48.574Z,101014.78
2023-04-09T09:42:15.849Z,100986.84
2023-04-09T09:44:42.983Z,101005.47
2023-04-09T09:47:13.412Z,101015.31
2023-04-09T09:49:40.458Z,101010.53
2023-04-09T09:52:10.966Z,100994.00
2023-04-09T09:54:42.439Z,101014.91
2023-04-09T09:57:13.808Z,101005.38
2023-04-09T10:00:04.615Z,101009.63
2023-04-09T10:02:47.578Z,101006.31
2023-04-09T10:05:15.820Z,101003.16
2023-04-09T10:07:43.679Z,101001.56
2023-04-09T10:10:11.467Z,101003.97
2023-04-09T10:12:41.926Z,100994.00
2023-04-09T10:15:09.934Z,100994.00
2023-04-09T10:17:37.077Z,100997.31
2023-04-09T10:20:19.036Z,101000.53
2023-04-09T10:22:50.351Z,100994.22
2023-04-09T10:25:17.793Z,100995.81
2023-04-09T10:27:49.353Z,100998.56
2023-04-09T10:30:35.797Z,100995.22
2023-04-09T10:33:14.467Z,100996.28
2023-04-09T10:35:42.395Z,100997.22
2023-04-09T10:38:14.202Z,100992.91
2023-04-09T10:41:21.642Z,100988.84
2023-04-09T10:43:49.049Z,101003.81
2023-04-09T10:46:27.885Z,100946.81
2023-04-09T10:49:10.457Z,101001.19
2023-04-09T10:51:39.248Z,101003.81
2023-04-09T10:54:06.935Z,101005.53
2023-04-09T10:56:34.236Z,101005.50
2023-04-09T10:59:01.230Z,100982.66
2023-04-09T11:01:28.415Z,100987.75
2023-04-09T11:04:20.791Z,100995.47
2023-04-09T11:06:49.160Z,100981.47
2023-04-09T11:09:16.145Z,100991.13
2023-04-09T11:11:43.128Z,100965.66
2023-04-09T11:14:10.203Z,100987.63
2023-04-09T11:16:37.209Z,100992.84
2023-04-09T11:19:04.572Z,100993.63
2023-04-09T11:21:31.918Z,100983.88
2023-04-09T11:23:58.917Z,100979.50
2023-04-09T11:26:36.619Z,100984.75
2023-04-09T11:29:11.212Z,100950.41
2023-04-09T11:31:38.242Z,100948.63
2023-04-09T11:34:05.252Z,100991.69
2023-04-09T11:36:34.737Z,100982.94
2023-04-09T11:39:02.696Z,100977.66
2023-04-09T11:41:47.741Z,100983.00
2023-04-09T11:44:14.740Z,100965.50
2023-04-09T11:46:42.651Z,100974.16
2023-04-09T11:49:09.978Z,100978.56
2023-04-09T11:51:37.175Z,100970.75
2023-04-09T11:54:05.902Z,100950.63
2023-04-09T11:56:33.363Z,100955.00
2023-04-09T11:59:01.246Z,100961.16
2023-04-09T12:01:33.223Z,100961.13
2023-04-09T12:04:01.590Z,100960.16
2023-04-09T12:06:28.907Z,100957.53
2023-04-09T12:08:59.698Z,100958.41
2023-04-09T12:11:31.949Z,100959.19
2023-04-09T12:14:00.635Z,100954.66
2023-04-09T12:16:30.148Z,100958.03
2023-04-09T12:18:57.155Z,100952.84
2023-04-09T12:21:27.727Z,100943.19
2023-04-09T12:23:54.697Z,100955.41
2023-04-09T12:26:21.707Z,100948.44
2023-04-09T12:28:48.666Z,100942.38
2023-04-09T12:31:15.701Z,100952.00
2023-04-09T12:33:43.146Z,100950.31
2023-04-09T12:36:10.236Z,100948.41
2023-04-09T12:38:37.233Z,100901.81
2023-04-09T12:41:04.349Z,100951.88
2023-04-09T12:43:31.354Z,100950.13
2023-04-09T12:45:58.522Z,100937.84
2023-04-09T12:48:25.705Z,100948.25
2023-04-09T12:50:52.709Z,100940.25
2023-04-09T12:53:19.663Z,100951.59
2023-04-09T12:55:47.005Z,100951.59
2023-04-09T12:58:13.984Z,100950.75
2023-04-09T13:00:41.201Z,100947.25
2023-04-09T13:03:08.251Z,100954.16
2023-04-09T13:05:35.734Z,100950.28
2023-04-09T13:08:03.035Z,100948.50
2023-04-09T13:10:33.418Z,100949.41
2023-04-09T13:13:00.389Z,100951.03
2023-04-09T13:15:27.561Z,100929.97
2023-04-09T13:17:54.636Z,100935.13
2023-04-09T13:20:21.614Z,100940.44
2023-04-09T13:22:49.304Z,100928.13
2023-04-09T13:25:16.794Z,100931.72
2023-04-09T13:27:44.240Z,100938.78
2023-04-09T13:30:11.538Z,100931.81
2023-04-09T13:32:38.719Z,100939.78
2023-04-09T13:35:07.038Z,100923.06
2023-04-09T13:37:34.005Z,100939.84
2023-04-09T13:40:01.012Z,100922.28
2023-04-09T13:42:28.052Z,100892.31
2023-04-09T13:44:55.298Z,100918.69
2023-04-09T13:47:23.972Z,100916.94
2023-04-09T13:49:53.136Z,100928.16
2023-04-09T13:52:20.348Z,100937.97
2023-04-09T13:54:47.424Z,100925.69
2023-04-09T13:57:14.493Z,100922.25
2023-04-09T13:59:42.571Z,100918.78
2023-04-09T14:02:09.740Z,100904.66
2023-04-09T14:04:36.967Z,100918.56
2023-04-09T14:07:04.065Z,100932.72
2023-04-09T14:09:31.256Z,100929.25
2023-04-09T14:11:58.203Z,100877.41
2023-04-09T14:14:25.222Z,100927.50
2023-04-09T14:16:52.286Z,100928.38
2023-04-09T14:19:19.281Z,100921.41
2023-04-09T14:21:46.252Z,100878.19
2023-04-09T14:24:13.327Z,100921.91
2023-04-09T14:26:40.943Z,100903.47
2023-04-09T14:29:08.188Z,100906.91
2023-04-09T14:31:35.400Z,100907.78
2023-04-09T14:34:02.505Z,100918.31
2023-04-09T14:36:29.823Z,100913.91
2023-04-09T14:38:57.959Z,100913.94
2023-04-09T14:41:25.332Z,100914.81
2023-04-09T14:43:52.319Z,100909.53
2023-04-09T14:46:20.320Z,100894.53
2023-04-09T14:48:47.538Z,100894.47
2023-04-09T14:51:14.535Z,100927.69
2023-04-09T14:53:41.622Z,100906.63
2023-04-09T14:56:08.787Z,100920.63
2023-04-09T14:58:36.454Z,100917.94
2023-04-09T15:01:04.425Z,100907.25
2023-04-09T15:03:31.479Z,100886.97
2023-04-09T15:05:59.475Z,100927.25
2023-04-09T15:08:26.542Z,100937.75
2023-04-09T15:10:53.472Z,100931.59
2023-04-09T15:13:20.618Z,100945.50
2023-04-09T15:15:47.692Z,100941.03
2023-04-09T15:18:14.720Z,100913.53
2023-04-09T15:20:43.485Z,100963.47
2023-04-09T15:23:11.195Z,100962.13
2023-04-09T15:25:38.924Z,100967.97
2023-04-09T15:28:06.571Z,100954.53
2023-04-09T15:30:35.562Z,100947.22
2023-04-09T15:33:02.833Z,100892.50
2023-04-09T15:35:29.946Z,100935.28
2023-04-09T15:37:57.499Z,100946.38
2023-04-09T15:40:24.717Z,100943.47
2023-04-09T15:42:51.690Z,100932.97
2023-04-09T15:45:18.717Z,100906.44
2023-04-09T15:47:46.259Z,100914.38
2023-04-09T15:50:14.247Z,100921.38
2023-04-09T15:52:41.358Z,100909.78
2023-04-09T15:55:09.163Z,100904.41
2023-04-09T15:57:36.642Z,100917.72
2023-04-09T16:00:04.010Z,100912.41
2023-04-09T16:02:31.698Z,100916.00
2023-04-09T16:04:58.764Z,100871.22
2023-04-09T16:07:25.838Z,100918.59
2023-04-09T16:09:52.823Z,100894.53
2023-04-09T16:12:19.828Z,100889.25
2023-04-09T16:14:46.819Z,100899.91
2023-04-09T16:17:13.752Z,100917.44
2023-04-09T16:19:42.054Z,100920.94
2023-04-09T16:22:10.139Z,100913.09
2023-04-09T16:24:37.465Z,100915.66
2023-04-09T16:27:04.468Z,100910.44
2023-04-09T16:29:31.465Z,100906.84
2023-04-09T16:31:58.416Z,100891.09
2023-04-09T16:34:25.695Z,100906.84
2023-04-09T16:36:52.660Z,100910.22
2023-04-09T16:39:19.782Z,100903.06
2023-04-09T16:41:46.771Z,100907.22
2023-04-09T16:44:13.922Z,100904.34
2023-04-09T16:46:41.088Z,100896.09
2023-04-09T16:49:08.122Z,100917.88
2023-04-09T16:51:35.296Z,100903.69
2023-04-09T16:54:02.222Z,100900.94
2023-04-09T16:56:29.212Z,100921.09
2023-04-09T16:58:56.452Z,100926.22
2023-04-09T17:01:23.477Z,100917.38
2023-04-09T17:03:50.843Z,100896.00
2023-04-09T17:06:18.164Z,100928.38
2023-04-09T17:08:45.810Z,100921.28
2023-04-09T17:11:16.452Z,100910.53
2023-04-09T17:13:43.582Z,100924.44
2023-04-09T17:16:14.398Z,100922.53
2023-04-09T17:18:41.526Z,100907.41
2023-04-09T17:21:08.552Z,100926.88
2023-04-09T17:23:36.900Z,100911.81
2023-04-09T17:26:04.013Z,100932.75
2023-04-09T17:28:30.998Z,100933.31
2023-04-09T17:30:58.026Z,100920.94
2023-04-09T17:33:25.035Z,100918.16
2023-04-09T17:35:53.089Z,100933.78
2023-04-09T17:38:21.622Z,100917.47
2023-04-09T17:40:48.850Z,100876.72
2023-04-09T17:43:15.933Z,100923.28
2023-04-09T17:45:43.322Z,100924.09
2023-04-09T17:48:10.298Z,100922.19
2023-04-09T17:50:39.035Z,100938.91
2023-04-09T17:53:06.027Z,100925.81
2023-04-09T17:55:33.057Z,100929.97
2023-04-09T17:58:00.074Z,100930.81
2023-04-09T18:00:27.130Z,100906.13
2023-04-09T18:02:54.427Z,100925.50
2023-04-09T18:05:23.076Z,100922.13
2023-04-09T18:07:51.237Z,100939.69
2023-04-09T18:10:18.659Z,100938.81
2023-04-09T18:12:45.934Z,100928.28
2023-04-09T18:15:12.992Z,100935.25
2023-04-09T18:17:40.173Z,100904.53
2023-04-09T18:20:07.733Z,100930.91
2023-04-09T18:22:35.288Z,100936.84
2023-04-09T18:25:02.432Z,100900.72
2023-04-09T18:27:30.498Z,100927.66
2023-04-09T18:29:57.446Z,100933.72
2023-04-09T18:32:25.442Z,100925.72
2023-04-09T18:34:53.021Z,100934.47
2023-04-09T18:37:21.781Z,100940.41
2023-04-09T18:39:48.805Z,100930.69
2023-04-09T18:42:16.023Z,100938.59
2023-04-09T18:44:43.018Z,100928.94
2023-04-09T18:47:11.125Z,100941.03
2023-04-09T18:49:38.297Z,100935.81
2023-04-09T18:52:10.303Z,100938.28
2023-04-09T18:54:38.909Z,100930.09
2023-04-09T18:57:06.099Z,100936.13
2023-04-09T18:59:35.008Z,100930.66
2023-04-09T19:02:06.026Z,100930.47
2023-04-09T19:04:40.046Z,100941.81
2023-04-09T19:07:07.462Z,100932.94
2023-04-09T19:09:34.880Z,100904.66
2023-04-09T19:12:02.295Z,100939.66
2023-04-09T19:14:29.317Z,100928.81
2023-04-09T19:16:57.166Z,100930.41
2023-04-09T19:19:24.130Z,100938.81
2023-04-09T19:21:51.387Z,100928.91
2023-04-09T19:24:18.390Z,100935.75
2023-04-09T19:26:45.477Z,100926.25
2023-04-09T19:29:12.413Z,100915.56
2023-04-09T19:31:39.510Z,100929.44
2023-04-09T19:34:06.590Z,100937.38
2023-04-09T19:36:34.142Z,100879.06
2023-04-09T19:39:01.301Z,100941.72
2023-04-09T19:41:28.441Z,100928.44
2023-04-09T19:43:55.518Z,100909.84
2023-04-09T19:46:22.528Z,100921.88
2023-04-09T19:48:49.590Z,100928.91
2023-04-09T19:51:20.284Z,100924.53
2023-04-09T19:53:48.197Z,100931.41
2023-04-09T19:56:15.842Z,100929.34
2023-04-09T19:58:43.909Z,100934.91
2023-04-09T20:01:11.446Z,100943.59
2023-04-09T20:03:38.896Z,100949.63
2023-04-09T20:06:10.443Z,100937.31
2023-04-09T20:08:41.048Z,100940.84
2023-04-09T20:11:08.141Z,100927.53
2023-04-09T20:13:35.152Z,100934.50
2023-04-09T20:16:02.263Z,100919.22
2023-04-09T20:18:29.448Z,100943.75
2023-04-09T20:20:56.606Z,100925.34
2023-04-09T20:23:23.625Z,100937.63
2023-04-09T20:25:55.153Z,100926.13
2023-04-09T20:28:22.250Z,100939.22
2023-04-09T20:30:49.457Z,100946.13
2023-04-09T20:33:18.111Z,100897.47
2023-04-09T20:35:45.651Z,100932.03
2023-04-09T20:38:12.739Z,100944.13
2023-04-09T20:40:39.890Z,100945.75
2023-04-09T20:43:06.821Z,100941.16
2023-04-09T20:45:33.901Z,100934.84
2023-04-09T20:48:01.618Z,100935.53
2023-04-09T20:50:29.967Z,100948.63
2023-04-09T20:52:58.962Z,100946.97
2023-04-09T20:55:26.360Z,100947.66
2023-04-09T20:57:55.575Z,100943.28
2023-04-09T21:00:23.279Z,100948.44
2023-04-09T21:02:51.602Z,100922.78
2023-04-09T21:05:23.645Z,100943.84
2023-04-09T21:07:52.626Z,100935.91
2023-04-09T21:10:20.186Z,100950.63
2023-04-09T21:12:47.477Z,100939.03
2023-04-09T21:15:14.580Z,100949.44
2023-04-09T21:17:41.569Z,100947.50
2023-04-09T21:20:09.004Z,100949.78
2023-04-09T21:22:36.095Z,100949.53
2023-04-09T21:25:03.711Z,100931.16
2023-04-09T21:27:31.385Z,100957.50
2023-04-09T21:29:58.887Z,100942.78
2023-04-09T21:32:25.932Z,100953.19
2023-04-09T21:34:52.967Z,100946.38
2023-04-09T21:37:19.970Z,100958.44
2023-04-09T21:39:48.880Z,100958.53
2023-04-09T21:42:16.099Z,100947.19
2023-04-09T21:44:43.100Z,100946.56
2023-04-09T21:47:12.155Z,100937.72
2023-04-09T21:49:40.759Z,100950.06
2023-04-09T21:52:14.496Z,100940.44
2023-04-09T21:54:42.583Z,100951.88
2023-04-09T21:57:10.432Z,100943.03
2023-04-09T21:59:37.615Z,100933.34
2023-04-09T22:02:05.237Z,100949.34
2023-04-09T22:04:32.770Z,100950.31
2023-04-09T22:06:59.816Z,100935.41
2023-04-09T22:09:26.911Z,100949.50
2023-04-09T22:11:54.106Z,100953.97
2023-04-09T22:14:22.010Z,100945.13
2023-04-09T22:16:48.997Z,100953.97
2023-04-09T22:19:16.705Z,100956.47
2023-04-09T22:21:43.699Z,100957.34
2023-04-09T22:24:10.866Z,100948.81
2023-04-09T22:26:39.156Z,100924.94
2023-04-09T22:29:07.223Z,100943.91
2023-04-09T22:31:34.249Z,100942.16
2023-04-09T22:34:10.058Z,100951.09
2023-04-09T22:36:41.518Z,100930.97
2023-04-09T22:39:08.741Z,100947.75
2023-04-09T22:41:35.690Z,100949.56
2023-04-09T22:44:02.792Z,100943.59
2023-04-09T22:46:29.894Z,100948.97
2023-04-09T22:51:25.800Z,100942.97
2023-04-09T22:53:52.753Z,100930.56
2023-04-09T22:56:19.791Z,100939.38
2023-04-09T22:58:46.852Z,100942.69
2023-04-09T23:01:13.897Z,100944.16
2023-04-09T23:03:41.031Z,100938.88
2023-04-09T23:06:07.962Z,100941.59
2023-04-09T23:08:34.872Z,100936.63
2023-04-09T23:11:01.813Z,100940.19
2023-04-09T23:13:28.742Z,100940.13
2023-04-09T23:15:55.849Z,100940.03
2023-04-09T23:18:23.104Z,100940.78
2023-04-09T23:20:50.042Z,100940.97
2023-04-09T23:23:17.060Z,100922.50
2023-04-09T23:25:44.014Z,100932.84
2023-04-09T23:28:11.013Z,100939.91
2023-04-09T23:30:37.942Z,100877.25
2023-04-09T23:33:04.965Z,100934.56
2023-04-09T23:35:32.003Z,100937.97
2023-04-09T23:37:59.025Z,100903.59
2023-04-09T23:40:26.009Z,100942.19
2023-04-09T23:42:53.141Z,100935.25
2023-04-09T23:45:23.643Z,100943.09
2023-04-09T23:47:51.005Z,100945.81
2023-04-09T23:50:18.005Z,100939.84
2023-04-09T23:52:49.632Z,100945.97
2023-04-09T23:55:16.643Z,100929.38
2023-04-09T23:57:43.852Z,100938.19
